createdAt,value
2023-07-09T00:01:45.769Z,101725.69
2023-07-09T00:04:12.627Z,101734.00
2023-07-09T00:06:40.194Z,101731.47
2023-07-09T00:09:07.505Z,101738.47
2023-07-09T00:11:34.156Z,101728.84
2023-07-09T00:14:00.813Z,101729.44
2023-07-09T00:16:27.477Z,101740.38
2023-07-09T00:18:54.150Z,101739.34
2023-07-09T00:21:21.630Z,101743.88
2023-07-09T00:23:48.194Z,101740.56
2023-07-09T00:26:15.021Z,101743.53
2023-07-09T00:28:42.541Z,101732.84
2023-07-09T00:31:18.036Z,101736.69
2023-07-09T00:33:44.814Z,101741.22
2023-07-09T00:36:35.637Z,101740.47
2023-07-09T00:39:02.463Z,101734.44
2023-07-09T00:41:29.015Z,101736.34
2023-07-09T00:43:55.609Z,101740.31
2023-07-09T00:46:22.116Z,101738.56
2023-07-09T00:48:50.428Z,101737.69
2023-07-09T00:51:18.499Z,101738.47
2023-07-09T00:53:45.956Z,101740.56
2023-07-09T00:56:17.688Z,101731.63
2023-07-09T00:58:44.347Z,101733.66
2023-07-09T01:01:12.003Z,101731.38
2023-07-09T01:03:41.690Z,101732.34
2023-07-09T01:06:08.304Z,101731.28
2023-07-09T01:08:36.024Z,101721.50
2023-07-09T01:11:02.709Z,101721.50
2023-07-09T01:13:29.357Z,101724.38
2023-07-09T01:15:56.078Z,101715.63
2023-07-09T01:18:22.731Z,101717.75
2023-07-09T01:20:49.312Z,101723.94
2023-07-09T01:23:15.903Z,101718.78
2023-07-09T01:25:47.229Z,101715.56
2023-07-09T01:28:13.820Z,101726.38
2023-07-09T01:30:41.531Z,101719.97
2023-07-09T01:33:08.184Z,101700.84
2023-07-09T01:35:35.923Z,101720.25
2023-07-09T01:38:02.578Z,101732.13
2023-07-09T01:40:32.547Z,101727.88
2023-07-09T01:43:01.234Z,101730.38
2023-07-09T01:45:28.455Z,101725.91
2023-07-09T01:47:55.242Z,101715.44
2023-07-09T01:50:21.869Z,101730.47
2023-07-09T01:52:48.462Z,101737.09
2023-07-09T01:55:15.158Z,101736.31
2023-07-09T01:57:41.779Z,101730.34
2023-07-09T02:00:13.931Z,101732.16
2023-07-09T02:02:44.274Z,101731.38
2023-07-09T02:05:11.608Z,101724.13
2023-07-09T02:07:38.154Z,101717.75
2023-07-09T02:10:04.984Z,101714.00
2023-07-09T02:12:31.568Z,101715.03
2023-07-09T02:14:58.176Z,101698.44
2023-07-09T02:17:24.919Z,101704.59
2023-07-09T02:19:51.482Z,101705.66
2023-07-09T02:22:18.109Z,101715.44
2023-07-09T02:24:44.655Z,101715.72
2023-07-09T02:27:11.402Z,101704.50
2023-07-09T02:29:38.196Z,101717.88
2023-07-09T02:32:05.170Z,101725.44
2023-07-09T02:34:31.870Z,101714.53
2023-07-09T02:36:59.370Z,101720.81
2023-07-09T02:39:26.208Z,101710.00
2023-07-09T02:41:52.804Z,101712.88
2023-07-09T02:44:19.411Z,101715.75
2023-07-09T02:46:46.170Z,101721.31
2023-07-09T02:49:13.481Z,101722.34
2023-07-09T02:51:40.144Z,101722.50
2023-07-09T02:54:06.788Z,101723.56
2023-07-09T02:56:33.395Z,101708.53
2023-07-09T02:58:59.972Z,101719.00
2023-07-09T03:01:26.549Z,101718.16
2023-07-09T03:03:53.836Z,101720.75
2023-07-09T03:06:21.693Z,101724.41
2023-07-09T03:08:48.391Z,101721.09
2023-07-09T03:11:15.346Z,101719.34
2023-07-09T03:13:41.923Z,101715.16
2023-07-09T03:16:08.585Z,101724.91
2023-07-09T03:18:35.158Z,101726.94
2023-07-09T03:21:01.750Z,101732.34
2023-07-09T03:23:28.327Z,101728.91
2023-07-09T03:25:55.856Z,101733.38
2023-07-09T03:28:22.507Z,101733.53
2023-07-09T03:30:49.222Z,101730.97
2023-07-09T03:33:16.656Z,101738.84
2023-07-09T03:35:43.507Z,101735.28
2023-07-09T03:38:10.477Z,101741.63
2023-07-09T03:40:37.146Z,101739.81
2023-07-09T03:43:03.695Z,101737.44
2023-07-09T03:45:30.898Z,101738.31
2023-07-09T03:47:57.543Z,101741.09
2023-07-09T03:50:24.185Z,101738.63
2023-07-09T03:52:50.801Z,101742.47
2023-07-09T03:55:17.375Z,101745.84
2023-07-09T03:57:43.944Z,101741.31
2023-07-09T04:00:10.840Z,101746.66
2023-07-09T04:02:40.705Z,101743.88
2023-07-09T04:05:07.983Z,101742.28
2023-07-09T04:07:34.580Z,101747.88
2023-07-09T04:10:01.133Z,101748.75
2023-07-09T04:12:27.774Z,101751.44
2023-07-09T04:14:54.353Z,101746.19
2023-07-09T04:17:20.991Z,101746.25
2023-07-09T04:19:47.589Z,101751.81
2023-07-09T04:22:14.204Z,101749.13
2023-07-09T04:24:40.805Z,101747.28
2023-07-09T04:27:07.508Z,101751.66
2023-07-09T04:29:34.159Z,101750.66
2023-07-09T04:32:01.271Z,101749.13
2023-07-09T04:34:27.949Z,101746.69
2023-07-09T04:36:54.492Z,101743.78
2023-07-09T04:39:21.085Z,101748.09
2023-07-09T04:41:48.371Z,101746.13
2023-07-09T04:44:15.158Z,101748.75
2023-07-09T04:46:41.823Z,101741.31
2023-07-09T04:49:08.511Z,101733.84
2023-07-09T04:51:35.064Z,101731.16
2023-07-09T04:54:01.636Z,101720.31
2023-07-09T04:56:28.273Z,101739.50
2023-07-09T04:58:54.875Z,101735.75
2023-07-09T05:01:21.494Z,101743.72
2023-07-09T05:03:48.114Z,101742.91
2023-07-09T05:06:14.923Z,101745.81
2023-07-09T05:08:41.478Z,101757.41
2023-07-09T05:11:08.088Z,101759.00
2023-07-09T05:13:34.745Z,101757.88
2023-07-09T05:16:01.774Z,101753.25
2023-07-09T05:18:28.711Z,101757.41
2023-07-09T05:20:55.772Z,101762.41
2023-07-09T05:23:22.344Z,101753.84
2023-07-09T05:25:48.958Z,101756.88
2023-07-09T05:28:15.562Z,101743.09
2023-07-09T05:30:43.254Z,101737.66
2023-07-09T05:33:09.944Z,101746.34
2023-07-09T05:35:36.595Z,101733.53
2023-07-09T05:38:03.257Z,101743.31
2023-07-09T05:40:29.870Z,101740.09
2023-07-09T05:42:56.517Z,101729.47
2023-07-09T05:45:23.097Z,101753.09
2023-07-09T05:47:49.664Z,101748.38
2023-07-09T05:50:16.406Z,101745.81
2023-07-09T05:52:42.998Z,101755.16
2023-07-09T05:55:09.824Z,101748.94
2023-07-09T05:57:36.349Z,101751.66
2023-07-09T06:00:02.992Z,101744.25
2023-07-09T06:02:29.638Z,101751.94
2023-07-09T06:04:56.255Z,101739.31
2023-07-09T06:07:22.982Z,101744.59
2023-07-09T06:09:49.628Z,101740.91
2023-07-09T06:12:16.197Z,101747.72
2023-07-09T06:14:42.851Z,101745.00
2023-07-09T06:17:09.524Z,101747.56
2023-07-09T06:19:36.180Z,101746.31
2023-07-09T06:22:02.757Z,101732.09
2023-07-09T06:24:29.372Z,101752.00
2023-07-09T06:26:55.983Z,101752.63
2023-07-09T06:29:22.532Z,101756.84
2023-07-09T06:31:49.121Z,101756.84
2023-07-09T06:34:15.745Z,101756.66
2023-07-09T06:36:44.308Z,101750.53
2023-07-09T06:39:11.257Z,101759.00
2023-07-09T06:41:37.831Z,101761.03
2023-07-09T06:44:04.462Z,101770.66
2023-07-09T06:46:31.066Z,101758.50
2023-07-09T06:48:57.734Z,101770.72
2023-07-09T06:51:24.317Z,101760.66
2023-07-09T06:53:50.887Z,101767.47
2023-07-09T06:56:17.817Z,101771.47
2023-07-09T06:58:44.474Z,101771.00
2023-07-09T07:01:11.086Z,101761.59
2023-07-09T07:03:37.835Z,101759.78
2023-07-09T07:06:04.941Z,101750.28
2023-07-09T07:08:31.758Z,101752.72
2023-07-09T07:11:00.605Z,101753.72
2023-07-09T07:13:30.249Z,101759.50
2023-07-09T07:15:57.189Z,101757.47
2023-07-09T07:18:23.801Z,101758.91
2023-07-09T07:20:50.543Z,101757.53
2023-07-09T07:23:17.150Z,101751.94
2023-07-09T07:25:50.054Z,101755.34
2023-07-09T07:28:16.806Z,101762.81
2023-07-09T07:30:43.575Z,101760.94
2023-07-09T07:33:10.137Z,101756.97
2023-07-09T07:35:36.779Z,101757.53
2023-07-09T07:38:03.711Z,101750.25
2023-07-09T07:40:30.388Z,101757.44
2023-07-09T07:42:56.969Z,101760.66
2023-07-09T07:45:23.550Z,101752.97
2023-07-09T07:47:50.153Z,101759.38
2023-07-09T07:50:16.738Z,101753.59
2023-07-09T07:52:43.338Z,101764.09
2023-07-09T07:55:13.366Z,101764.00
2023-07-09T07:57:42.424Z,101754.53
2023-07-09T08:00:09.520Z,101758.41
2023-07-09T08:02:36.317Z,101755.06
2023-07-09T08:05:02.916Z,101753.69
2023-07-09T08:07:29.531Z,101749.56
2023-07-09T08:09:56.143Z,101758.06
2023-07-09T08:12:22.685Z,101747.69
2023-07-09T08:14:49.315Z,101748.78
2023-07-09T08:17:15.970Z,101744.66
2023-07-09T08:19:55.215Z,101744.66
2023-07-09T08:22:22.154Z,101743.13
2023-07-09T08:24:49.400Z,101745.31
2023-07-09T08:27:15.976Z,101738.13
2023-07-09T08:29:42.693Z,101740.94
2023-07-09T08:32:10.228Z,101747.41
2023-07-09T08:34:50.123Z,101750.13
2023-07-09T08:37:26.795Z,101749.03
2023-07-09T08:39:53.349Z,101747.34
2023-07-09T08:42:26.653Z,101748.06
2023-07-09T08:45:15.009Z,101748.69
2023-07-09T08:48:04.250Z,101742.09
2023-07-09T08:50:37.697Z,101740.91
2023-07-09T08:53:04.260Z,101743.09
2023-07-09T08:55:30.842Z,101743.44
2023-07-09T08:58:02.195Z,101727.69
2023-07-09T09:00:32.933Z,101737.41
2023-07-09T09:03:01.556Z,101726.09
2023-07-09T09:05:28.316Z,101722.69
2023-07-09T09:07:59.676Z,101726.00
2023-07-09T09:10:34.602Z,101721.50
2023-07-09T09:13:12.757Z,101723.22
2023-07-09T09:15:44.336Z,101723.38
2023-07-09T09:18:23.013Z,101726.56
2023-07-09T09:21:04.594Z,101724.84
2023-07-09T09:23:40.435Z,101724.94
2023-07-09T09:26:14.525Z,101722.94
2023-07-09T09:28:41.135Z,101721.94
2023-07-09T09:31:11.728Z,101723.94
2023-07-09T09:33:45.010Z,101715.16
2023-07-09T09:36:22.709Z,101715.56
2023-07-09T09:38:49.355Z,101708.91
2023-07-09T09:41:20.346Z,101718.38
2023-07-09T09:43:47.942Z,101715.31
2023-07-09T09:46:19.061Z,101718.56
2023-07-09T09:52:14.806Z,101719.22
2023-07-09T09:54:42.581Z,101723.25
2023-07-09T09:57:20.523Z,101723.69
2023-07-09T09:59:47.408Z,101726.16
2023-07-09T10:02:25.384Z,101722.69
2023-07-09T10:04:52.401Z,101706.50
2023-07-09T10:07:28.531Z,101713.31
2023-07-09T10:09:55.619Z,101710.53
2023-07-09T10:12:47.059Z,101711.34
2023-07-09T10:15:38.928Z,101706.13
2023-07-09T10:18:24.344Z,101708.84
2023-07-09T10:21:25.185Z,101716.91
2023-07-09T10:24:21.039Z,101711.44
2023-07-09T10:26:49.424Z,101717.63
2023-07-09T10:29:33.300Z,101716.75
2023-07-09T10:32:25.174Z,101719.91
2023-07-09T10:35:08.859Z,101707.03
2023-07-09T10:37:45.301Z,101703.84
2023-07-09T10:40:14.139Z,101704.41
2023-07-09T10:42:49.070Z,101693.66
2023-07-09T10:45:20.433Z,101707.38
2023-07-09T10:47:52.563Z,101701.78
2023-07-09T10:50:34.610Z,101703.94
2023-07-09T10:53:42.675Z,101708.78
2023-07-09T10:56:21.628Z,101699.66
2023-07-09T10:58:52.210Z,101698.22
2023-07-09T11:01:18.851Z,101694.13
2023-07-09T11:03:53.118Z,101693.78
2023-07-09T11:06:27.564Z,101692.78
2023-07-09T11:08:54.285Z,101701.03
2023-07-09T11:11:26.512Z,101692.06
2023-07-09T11:13:55.422Z,101692.16
2023-07-09T11:16:29.953Z,101692.00
2023-07-09T11:18:59.237Z,101687.88
2023-07-09T11:21:25.966Z,101684.72
2023-07-09T11:23:58.788Z,101694.94
2023-07-09T11:26:30.085Z,101681.22
2023-07-09T11:29:03.584Z,101682.59
2023-07-09T11:31:40.586Z,101671.16
2023-07-09T11:34:07.047Z,101674.41
2023-07-09T11:36:33.718Z,101675.88
2023-07-09T11:39:01.634Z,101671.44
2023-07-09T11:41:44.342Z,101662.31
2023-07-09T11:44:15.924Z,101671.50
2023-07-09T11:47:20.241Z,101668.28
2023-07-09T11:49:48.315Z,101661.50
2023-07-09T11:52:14.912Z,101664.97
2023-07-09T11:54:42.389Z,101664.44
2023-07-09T11:57:12.715Z,101668.44
2023-07-09T11:59:42.660Z,101664.47
2023-07-09T12:02:18.762Z,101660.47
2023-07-09T12:04:45.320Z,101668.63
2023-07-09T12:07:14.043Z,101660.69
2023-07-09T12:09:43.149Z,101653.91
2023-07-09T12:12:25.872Z,101658.06
2023-07-09T12:14:52.491Z,101650.28
2023-07-09T12:17:19.341Z,101645.78
2023-07-09T12:19:45.917Z,101641.09
2023-07-09T12:22:20.600Z,101636.03
2023-07-09T12:24:48.404Z,101637.50
2023-07-09T12:27:20.283Z,101627.75
2023-07-09T12:29:46.840Z,101629.56
2023-07-09T12:32:15.523Z,101616.00
2023-07-09T12:34:42.112Z,101622.41
2023-07-09T12:37:13.157Z,101617.13
2023-07-09T12:39:39.735Z,101617.19
2023-07-09T12:42:06.406Z,101620.16
2023-07-09T12:44:36.409Z,101614.03
2023-07-09T12:47:03.066Z,101622.25
2023-07-09T12:49:31.098Z,101626.44
2023-07-09T12:52:02.331Z,101623.53
2023-07-09T12:54:31.681Z,101611.91
2023-07-09T12:57:00.181Z,101614.50
2023-07-09T12:59:38.453Z,101609.88
2023-07-09T13:02:20.179Z,101611.97
2023-07-09T13:04:47.079Z,101612.13
2023-07-09T13:07:22.974Z,101612.16
2023-07-09T13:09:53.266Z,101617.38
2023-07-09T13:12:20.795Z,101606.66
2023-07-09T13:14:54.646Z,101609.44
2023-07-09T13:17:21.225Z,101594.94
2023-07-09T13:19:47.805Z,101606.16
2023-07-09T13:22:15.300Z,101598.91
2023-07-09T13:24:41.851Z,101601.50
2023-07-09T13:27:12.552Z,101596.50
2023-07-09T13:29:39.115Z,101594.22
2023-07-09T13:32:13.129Z,101593.72
2023-07-09T13:34:39.734Z,101579.34
2023-07-09T13:37:07.079Z,101583.50
2023-07-09T13:39:33.645Z,101594.91
2023-07-09T13:42:00.233Z,101582.13
2023-07-09T13:44:28.836Z,101589.72
2023-07-09T13:46:56.198Z,101587.13
2023-07-09T13:49:25.306Z,101598.91
2023-07-09T13:51:52.302Z,101593.72
2023-07-09T13:54:21.419Z,101588.31
2023-07-09T13:56:48.035Z,101593.16
2023-07-09T13:59:22.202Z,101586.94
2023-07-09T14:01:49.804Z,101586.63
2023-07-09T14:04:17.048Z,101586.06
2023-07-09T14:06:43.801Z,101582.59
2023-07-09T14:09:13.989Z,101576.59
2023-07-09T14:11:50.106Z,101574.88
2023-07-09T14:14:25.005Z,101563.81
2023-07-09T14:16:51.667Z,101563.13
2023-07-09T14:19:20.105Z,101544.78
2023-07-09T14:21:47.324Z,101542.66
2023-07-09T14:24:25.513Z,101533.16
2023-07-09T14:26:53.075Z,101532.28
2023-07-09T14:29:19.766Z,101544.28
2023-07-09T14:31:47.037Z,101539.25
2023-07-09T14:34:25.096Z,101535.47
2023-07-09T14:36:54.003Z,101535.63
2023-07-09T14:39:20.735Z,101545.13
2023-07-09T14:41:47.303Z,101540.09
2023-07-09T14:44:21.316Z,101533.38
2023-07-09T14:46:47.912Z,101531.66
2023-07-09T14:49:14.491Z,101534.28
2023-07-09T14:51:41.660Z,101526.84
2023-07-09T14:54:20.452Z,101529.06
2023-07-09T14:56:49.429Z,101523.69
2023-07-09T14:59:16.034Z,101532.31
2023-07-09T15:01:42.618Z,101525.44
2023-07-09T15:04:32.206Z,101523.16
2023-07-09T15:06:59.224Z,101522.16
2023-07-09T15:09:27.299Z,101514.00
2023-07-09T15:11:55.274Z,101504.94
2023-07-09T15:14:22.019Z,101508.00
2023-07-09T15:16:49.184Z,101500.28
2023-07-09T15:19:16.343Z,101498.34
2023-07-09T15:21:42.956Z,101493.50
2023-07-09T15:24:31.449Z,101483.81
2023-07-09T15:26:58.083Z,101459.50
2023-07-09T15:29:25.504Z,101474.63
2023-07-09T15:31:52.183Z,101459.63
2023-07-09T15:34:18.828Z,101456.13
2023-07-09T15:36:47.158Z,101453.06
2023-07-09T15:39:15.035Z,101448.53
2023-07-09T15:41:41.757Z,101442.25
2023-07-09T15:44:16.920Z,101435.00
2023-07-09T15:46:54.438Z,101435.31
2023-07-09T15:49:21.273Z,101434.25
2023-07-09T15:51:48.184Z,101434.56
2023-07-09T15:54:21.898Z,101434.16
2023-07-09T15:56:49.046Z,101430.13
2023-07-09T15:59:29.086Z,101420.28
2023-07-09T16:01:55.834Z,101429.06
2023-07-09T16:04:22.527Z,101420.59
2023-07-09T16:06:49.185Z,101405.03
2023-07-09T16:09:15.809Z,101405.34
2023-07-09T16:11:52.626Z,101395.22
2023-07-09T16:14:21.966Z,101396.72
2023-07-09T16:16:49.107Z,101383.44
2023-07-09T16:19:15.697Z,101382.41
2023-07-09T16:21:42.364Z,101373.94
2023-07-09T16:24:20.388Z,101380.63
2023-07-09T16:26:46.995Z,101384.19
2023-07-09T16:29:23.435Z,101393.75
2023-07-09T16:31:52.718Z,101387.88
2023-07-09T16:34:20.354Z,101394.69
2023-07-09T16:36:46.909Z,101412.06
2023-07-09T16:39:42.972Z,101407.44
2023-07-09T16:42:11.440Z,101428.00
2023-07-09T16:44:38.050Z,101428.34
2023-07-09T16:47:10.900Z,101418.66
2023-07-09T16:49:38.803Z,101420.31
2023-07-09T16:52:13.891Z,101417.16
2023-07-09T16:54:40.495Z,101423.13
2023-07-09T16:57:22.396Z,101434.03
2023-07-09T16:59:49.584Z,101444.50
2023-07-09T17:02:30.614Z,101455.78
2023-07-09T17:04:58.827Z,101453.47
2023-07-09T17:07:25.385Z,101443.09
2023-07-09T17:09:53.806Z,101436.75
2023-07-09T17:12:20.374Z,101445.00
2023-07-09T17:14:46.976Z,101440.75
2023-07-09T17:17:20.956Z,101438.78
2023-07-09T17:19:47.632Z,101443.13
2023-07-09T17:22:18.245Z,101439.66
2023-07-09T17:24:44.890Z,101439.94
2023-07-09T17:27:11.516Z,101438.69
2023-07-09T17:29:41.357Z,101431.31
2023-07-09T17:32:08.176Z,101428.13
2023-07-09T17:34:34.907Z,101436.00
2023-07-09T17:37:01.540Z,101440.03
2023-07-09T17:39:28.179Z,101438.31
2023-07-09T17:41:54.793Z,101440.66
2023-07-09T17:44:22.801Z,101436.63
2023-07-09T17:46:51.751Z,101432.03
2023-07-09T17:49:32.795Z,101440.00
2023-07-09T17:51:59.528Z,101438.56
2023-07-09T17:54:26.992Z,101441.03
2023-07-09T17:56:55.070Z,101429.31
2023-07-09T17:59:23.715Z,101430.72
2023-07-09T18:02:14.460Z,101427.00
2023-07-09T18:04:41.053Z,101419.50
2023-07-09T18:07:21.830Z,101415.88
2023-07-09T18:09:48.509Z,101417.31
2023-07-09T18:12:17.437Z,101413.31
2023-07-09T18:14:44.815Z,101424.56
2023-07-09T18:17:27.398Z,101420.56
2023-07-09T18:19:53.981Z,101428.06
2023-07-09T18:22:21.632Z,101439.59
2023-07-09T18:24:48.403Z,101437.44
2023-07-09T18:27:32.933Z,101445.94
2023-07-09T18:29:59.606Z,101454.63
2023-07-09T18:32:27.171Z,101445.78
2023-07-09T18:34:59.003Z,101453.44
2023-07-09T18:37:25.631Z,101452.88
2023-07-09T18:39:52.224Z,101452.41
2023-07-09T18:42:20.421Z,101444.78
2023-07-09T18:44:47.155Z,101447.06
2023-07-09T18:47:15.047Z,101438.25
2023-07-09T18:49:41.716Z,101445.91
2023-07-09T18:52:18.958Z,101441.28
2023-07-09T18:54:47.175Z,101441.69
2023-07-09T18:57:14.710Z,101429.56
2023-07-09T18:59:41.479Z,101440.28
2023-07-09T19:02:19.212Z,101442.28
2023-07-09T19:04:45.967Z,101440.69
2023-07-09T19:07:13.463Z,101440.94
2023-07-09T19:09:40.147Z,101441.91
2023-07-09T19:12:07.125Z,101443.19
2023-07-09T19:14:33.956Z,101443.59
2023-07-09T19:17:02.259Z,101450.81
2023-07-09T19:19:29.022Z,101445.75
2023-07-09T19:21:56.066Z,101456.28
2023-07-09T19:24:27.541Z,101457.81
2023-07-09T19:26:54.886Z,101452.91
2023-07-09T19:29:22.380Z,101462.38
2023-07-09T19:31:51.076Z,101466.69
2023-07-09T19:34:22.509Z,101472.72
2023-07-09T19:36:49.860Z,101478.16
2023-07-09T19:39:34.909Z,101482.97
2023-07-09T19:42:15.499Z,101487.84
2023-07-09T19:44:42.143Z,101487.41
2023-07-09T19:47:17.899Z,101546.97
2023-07-09T19:49:44.649Z,101595.69
2023-07-09T19:52:14.710Z,101617.28
2023-07-09T19:54:42.120Z,101631.72
2023-07-09T19:57:08.639Z,101649.59
2023-07-09T19:59:35.296Z,101675.72
2023-07-09T20:02:01.933Z,101701.03
2023-07-09T20:04:28.511Z,101708.66
2023-07-09T20:06:55.062Z,101716.94
2023-07-09T20:09:21.673Z,101744.16
2023-07-09T20:11:50.088Z,101758.78
2023-07-09T20:14:18.954Z,101770.03
2023-07-09T20:16:45.636Z,101783.03
2023-07-09T20:19:13.260Z,101788.53
2023-07-09T20:21:40.050Z,101809.59
2023-07-09T20:24:24.902Z,101824.81
2023-07-09T20:26:51.451Z,101818.72
2023-07-09T20:29:18.655Z,101804.66
2023-07-09T20:31:46.318Z,101794.84
2023-07-09T20:34:20.550Z,101819.09
2023-07-09T20:36:47.541Z,101828.03
2023-07-09T20:39:19.298Z,101838.47
2023-07-09T20:41:46.085Z,101841.41
2023-07-09T20:44:27.014Z,101841.50
2023-07-09T20:46:53.864Z,101839.09
2023-07-09T20:49:28.930Z,101826.50
2023-07-09T20:51:55.857Z,101845.34
2023-07-09T20:54:22.463Z,101848.41
2023-07-09T20:56:49.116Z,101837.94
2023-07-09T20:59:19.139Z,101840.31
2023-07-09T21:01:46.235Z,101831.56
2023-07-09T21:04:15.031Z,101814.78
2023-07-09T21:06:41.912Z,101808.38
2023-07-09T21:09:28.484Z,101799.00
2023-07-09T21:11:55.053Z,101800.44
2023-07-09T21:14:21.672Z,101805.63
2023-07-09T21:16:49.042Z,101806.97
2023-07-09T21:19:47.910Z,101798.06
2023-07-09T21:22:14.723Z,101788.03
2023-07-09T21:24:41.498Z,101799.91
2023-07-09T21:27:08.165Z,101784.44
2023-07-09T21:29:34.795Z,101775.78
2023-07-09T21:32:06.640Z,101765.72
2023-07-09T21:34:33.993Z,101762.31
2023-07-09T21:37:02.944Z,101770.91
2023-07-09T21:39:31.254Z,101755.59
2023-07-09T21:41:57.969Z,101730.56
2023-07-09T21:44:26.359Z,101713.00
2023-07-09T21:47:02.079Z,101702.22
2023-07-09T21:49:29.800Z,101704.28
2023-07-09T21:51:56.438Z,101689.66
2023-07-09T21:57:04.689Z,101658.31
2023-07-09T21:59:31.936Z,101632.34
2023-07-09T22:02:00.381Z,101607.50
2023-07-09T22:04:36.754Z,101585.22
2023-07-09T22:07:24.380Z,101574.72
2023-07-09T22:09:52.894Z,101560.41
2023-07-09T22:12:19.542Z,101548.69
2023-07-09T22:14:47.613Z,101554.59
2023-07-09T22:17:14.172Z,101546.81
2023-07-09T22:19:45.113Z,101537.06
2023-07-09T22:22:12.124Z,101519.50
2023-07-09T22:24:38.688Z,101507.97
2023-07-09T22:27:06.525Z,101508.47
2023-07-09T22:29:33.098Z,101510.47
2023-07-09T22:31:59.693Z,101521.84
2023-07-09T22:34:26.393Z,101532.47
2023-07-09T22:36:52.982Z,101529.88
2023-07-09T22:39:19.526Z,101533.66
2023-07-09T22:41:46.479Z,101535.78
2023-07-09T22:44:13.649Z,101526.19
2023-07-09T22:46:43.906Z,101526.88
2023-07-09T22:49:16.951Z,101527.81
2023-07-09T22:51:43.588Z,101524.25
2023-07-09T22:54:13.422Z,101513.00
2023-07-09T22:56:40.060Z,101512.91
2023-07-09T22:59:06.653Z,101504.97
2023-07-09T23:01:33.272Z,101500.78
2023-07-09T23:04:00.107Z,101501.75
2023-07-09T23:06:27.403Z,101500.19
2023-07-09T23:08:55.286Z,101494.84
2023-07-09T23:11:27.487Z,101490.03
2023-07-09T23:13:54.227Z,101481.28
2023-07-09T23:16:25.968Z,101476.31
2023-07-09T23:18:52.730Z,101479.72
2023-07-09T23:21:23.576Z,101473.34
2023-07-09T23:23:51.348Z,101478.16
2023-07-09T23:26:17.990Z,101476.53
2023-07-09T23:28:44.543Z,101484.69
2023-07-09T23:31:26.525Z,101492.03
2023-07-09T23:33:53.689Z,101485.34
2023-07-09T23:36:20.400Z,101481.94
2023-07-09T23:38:47.000Z,101484.63
2023-07-09T23:41:24.605Z,101475.72
2023-07-09T23:43:51.215Z,101474.38
2023-07-09T23:46:17.793Z,101480.94
2023-07-09T23:48:48.931Z,101478.03
2023-07-09T23:51:18.243Z,101475.50
2023-07-09T23:53:44.788Z,101475.19
2023-07-09T23:56:17.342Z,101472.88
2023-07-09T23:58:43.906Z,101468.31
